PWSweather.com
Personal Weather Stations
Station Observations
SHAHALMS1
Eftra, Falkenberg, HA

EftraFalkenberg, HA

Lat: 56.85, Lon: 12.65

Elevation: 140

Station Type:

http://hem.passagen.se/risarp101

Latest ConditionsUpdated 9:40:01 PM GMT+1 Sunday, Jan 19, 2020
Currently Today's Max Today's Min Today's Average
Temperature 33.4°F0.8°C 42.8°F6.0°C 33.4°F0.8°C 38.2°F3.4°C
Dew Point 30.5°F-0.8°C 41.0°F5.0°C 30.5°F-0.8°C 35.6°F2.0°C
Winds Calm Calm 7.3 mph -11.7 kmh - - 1.5 mph 2.4 kmh
Wind Gusts -- 15.7 mph25.3 kmh - -
Humidity 89% 94% 87% 90%
Pressure 30.66 in1038.3 mb 30.66 in1038.3 mb 30.04 in1017.3 mb -
Hour Temp Dew Point Humidity Winds Wind Gusts Pressure Precip Precip Rate Daily Precip Total
09:40 PM 33.4°F0.8°C 30.5°F-0.8°C 89% Calm Calm -- 30.66 in1038.3 mb 0.00 in0.0 mm 0.00 in0.0 mm 0.00 in0.0 mm
09:30 PM 33.4°F0.8°C 30.5°F-0.8°C 89% Calm Calm -- 30.66 in1038.3 mb 0.00 in0.0 mm 0.00 in0.0 mm 0.00 in0.0 mm
09:20 PM 33.6°F0.9°C 30.7°F-0.7°C 89% Calm Calm -- 30.66 in1038.3 mb 0.00 in0.0 mm 0.00 in0.0 mm 0.00 in0.0 mm
09:10 PM 33.8°F1.0°C 30.9°F-0.6°C 89% Calm Calm -- 30.63 in1037.3 mb 0.00 in0.0 mm 0.00 in0.0 mm 0.00 in0.0 mm
09:00 PM 33.8°F1.0°C 30.9°F-0.6°C 89% Calm Calm -- 30.63 in1037.3 mb 0.00 in0.0 mm 0.00 in0.0 mm 0.00 in0.0 mm
08:50 PM 33.8°F1.0°C 30.9°F-0.6°C 89% Calm Calm -- 30.63 in1037.3 mb 0.00 in0.0 mm 0.00 in0.0 mm 0.00 in0.0 mm
08:40 PM 34.0°F1.1°C 31.1°F-0.5°C 89% Calm Calm -- 30.63 in1037.3 mb 0.00 in0.0 mm 0.00 in0.0 mm 0.00 in0.0 mm
08:30 PM 34.0°F1.1°C 31.1°F-0.5°C 89% Calm Calm -- 30.63 in1037.3 mb 0.00 in0.0 mm 0.00 in0.0 mm 0.00 in0.0 mm
08:20 PM 34.2°F1.2°C 31.3°F-0.4°C 89% Calm Calm -- 30.63 in1037.3 mb 0.00 in0.0 mm 0.00 in0.0 mm 0.00 in0.0 mm
08:10 PM 34.2°F1.2°C 31.0°F-0.6°C 88% Calm Calm -- 30.60 in1036.2 mb 0.00 in0.0 mm 0.00 in0.0 mm 0.00 in0.0 mm
08:00 PM 34.3°F1.3°C 31.4°F-0.3°C 89% Calm Calm -- 30.63 in1037.3 mb 0.00 in0.0 mm 0.00 in0.0 mm 0.00 in0.0 mm
07:50 PM 34.5°F1.4°C 31.6°F-0.2°C 89% Calm Calm -- 30.63 in1037.3 mb 0.00 in0.0 mm 0.00 in0.0 mm 0.00 in0.0 mm
07:40 PM 34.5°F1.4°C 31.6°F-0.2°C 89% Calm Calm -- 30.63 in1037.3 mb 0.00 in0.0 mm 0.00 in0.0 mm 0.00 in0.0 mm
07:30 PM 34.7°F1.5°C 31.8°F-0.1°C 89% Calm Calm -- 30.63 in1037.3 mb 0.00 in0.0 mm 0.00 in0.0 mm 0.00 in0.0 mm
07:20 PM 34.7°F1.5°C 31.5°F-0.3°C 88% Calm Calm -- 30.63 in1037.3 mb 0.00 in0.0 mm 0.00 in0.0 mm 0.00 in0.0 mm
07:10 PM 34.7°F1.5°C 31.5°F-0.3°C 88% Calm Calm -- 30.60 in1036.2 mb 0.00 in0.0 mm 0.00 in0.0 mm 0.00 in0.0 mm
07:00 PM 34.7°F1.5°C 31.5°F-0.3°C 88% Calm Calm -- 30.60 in1036.2 mb 0.00 in0.0 mm 0.00 in0.0 mm 0.00 in0.0 mm
06:50 PM 34.9°F1.6°C 31.7°F-0.2°C 88% 0.9 mph WNW1.4 kmh WNW 4.7 mph7.6 kmh 30.60 in1036.2 mb 0.00 in0.0 mm 0.00 in0.0 mm 0.00 in0.0 mm
06:40 PM 34.9°F1.6°C 31.7°F-0.2°C 88% Calm Calm -- 30.57 in1035.2 mb 0.00 in0.0 mm 0.00 in0.0 mm 0.00 in0.0 mm
06:30 PM 35.1°F1.7°C 31.9°F-0.1°C 88% 0.5 mph W0.8 kmh W 4.3 mph6.9 kmh 30.60 in1036.2 mb 0.00 in0.0 mm 0.00 in0.0 mm 0.00 in0.0 mm
06:20 PM 35.1°F1.7°C 31.9°F-0.1°C 88% 2.0 mph W3.2 kmh W 6.4 mph10.3 kmh 30.60 in1036.2 mb 0.00 in0.0 mm 0.00 in0.0 mm 0.00 in0.0 mm
06:10 PM 35.2°F1.8°C 32.0°F0.0°C 88% 0.4 mph W0.6 kmh W 3.9 mph6.3 kmh 30.60 in1036.2 mb 0.00 in0.0 mm 0.00 in0.0 mm 0.00 in0.0 mm
06:00 PM 35.6°F2.0°C 32.4°F0.2°C 88% Calm Calm -- 30.57 in1035.2 mb 0.00 in0.0 mm 0.00 in0.0 mm 0.00 in0.0 mm
05:50 PM 36.0°F2.2°C 32.8°F0.4°C 88% Calm Calm -- 30.57 in1035.2 mb 0.00 in0.0 mm 0.00 in0.0 mm 0.00 in0.0 mm
05:40 PM 36.1°F2.3°C 32.9°F0.5°C 88% Calm Calm -- 30.54 in1034.2 mb 0.00 in0.0 mm 0.00 in0.0 mm 0.00 in0.0 mm
05:30 PM 36.3°F2.4°C 33.1°F0.6°C 88% Calm Calm -- 30.54 in1034.2 mb 0.00 in0.0 mm 0.00 in0.0 mm 0.00 in0.0 mm
05:20 PM 36.5°F2.5°C 33.3°F0.7°C 88% 0.2 mph W0.3 kmh W 2.5 mph4.0 kmh 30.54 in1034.2 mb 0.00 in0.0 mm 0.00 in0.0 mm 0.00 in0.0 mm
05:10 PM 36.7°F2.6°C 33.5°F0.8°C 88% 0.2 mph W0.3 kmh W 2.5 mph4.0 kmh 30.54 in1034.2 mb 0.00 in0.0 mm 0.00 in0.0 mm 0.00 in0.0 mm
05:00 PM 37.0°F2.8°C 33.5°F0.8°C 87% Calm Calm -- 30.54 in1034.2 mb 0.00 in0.0 mm 0.00 in0.0 mm 0.00 in0.0 mm
04:50 PM 37.4°F3.0°C 33.9°F1.1°C 87% 0.1 mph W0.2 kmh W 2.5 mph4.0 kmh 30.54 in1034.2 mb 0.00 in0.0 mm 0.00 in0.0 mm 0.00 in0.0 mm
04:40 PM 37.8°F3.2°C 34.2°F1.2°C 87% Calm Calm -- 30.54 in1034.2 mb 0.00 in0.0 mm 0.00 in0.0 mm 0.00 in0.0 mm
04:30 PM 38.1°F3.4°C 34.6°F1.4°C 87% Calm Calm -- 30.54 in1034.2 mb 0.00 in0.0 mm 0.00 in0.0 mm 0.00 in0.0 mm
04:20 PM 38.3°F3.5°C 34.8°F1.6°C 87% Calm Calm -- 30.54 in1034.2 mb 0.00 in0.0 mm 0.00 in0.0 mm 0.00 in0.0 mm
04:10 PM 38.8°F3.8°C 35.3°F1.8°C 87% 0.4 mph W0.6 kmh W 4.3 mph6.9 kmh 30.51 in1033.2 mb 0.00 in0.0 mm 0.00 in0.0 mm 0.00 in0.0 mm
04:00 PM 39.4°F4.1°C 36.1°F2.3°C 88% Calm Calm -- 30.51 in1033.2 mb 0.00 in0.0 mm 0.00 in0.0 mm 0.00 in0.0 mm
03:50 PM 39.9°F4.4°C 36.7°F2.6°C 88% Calm Calm -- 30.51 in1033.2 mb 0.00 in0.0 mm 0.00 in0.0 mm 0.00 in0.0 mm
03:40 PM 40.5°F4.7°C 37.2°F2.9°C 88% Calm Calm -- 30.48 in1032.2 mb 0.00 in0.0 mm 0.00 in0.0 mm 0.00 in0.0 mm
03:30 PM 41.0°F5.0°C 37.7°F3.2°C 88% 0.1 mph W0.2 kmh W 1.4 mph2.3 kmh 30.48 in1032.2 mb 0.00 in0.0 mm 0.00 in0.0 mm 0.00 in0.0 mm
03:20 PM 41.4°F5.2°C 38.4°F3.6°C 89% 0.1 mph NNW0.2 kmh NNW 1.4 mph2.3 kmh 30.48 in1032.2 mb 0.00 in0.0 mm 0.00 in0.0 mm 0.00 in0.0 mm
03:10 PM 41.9°F5.5°C 38.9°F3.8°C 89% Calm Calm 1.4 mph2.3 kmh 30.48 in1032.2 mb 0.00 in0.0 mm 0.00 in0.0 mm 0.00 in0.0 mm
03:00 PM 42.3°F5.7°C 39.5°F4.2°C 90% 0.5 mph NW0.8 kmh NW 6.8 mph10.9 kmh 30.45 in1031.2 mb 0.00 in0.0 mm 0.00 in0.0 mm 0.00 in0.0 mm
02:50 PM 42.4°F5.8°C 39.7°F4.3°C 90% 2.7 mph NW4.3 kmh NW 6.1 mph9.8 kmh 30.45 in1031.2 mb 0.00 in0.0 mm 0.00 in0.0 mm 0.00 in0.0 mm
02:40 PM 42.4°F5.8°C 39.7°F4.3°C 90% 2.0 mph NW3.2 kmh NW 6.8 mph10.9 kmh 30.48 in1032.2 mb 0.00 in0.0 mm 0.00 in0.0 mm 0.00 in0.0 mm
02:30 PM 42.8°F6.0°C 40.4°F4.7°C 91% 4.4 mph NW7.1 kmh NW 8.6 mph13.8 kmh 30.48 in1032.2 mb 0.00 in0.0 mm 0.00 in0.0 mm 0.00 in0.0 mm
02:20 PM 42.8°F6.0°C 40.4°F4.7°C 91% 3.2 mph NW5.1 kmh NW 6.8 mph10.9 kmh 30.48 in1032.2 mb 0.00 in0.0 mm 0.00 in0.0 mm 0.00 in0.0 mm
02:10 PM 42.8°F6.0°C 40.6°F4.8°C 92% 4.9 mph NW7.9 kmh NW 10.0 mph16.1 kmh 30.48 in1032.2 mb 0.00 in0.0 mm 0.00 in0.0 mm 0.00 in0.0 mm
02:00 PM 42.8°F6.0°C 40.6°F4.8°C 92% 4.0 mph NW6.4 kmh NW 9.3 mph15.0 kmh 30.48 in1032.2 mb 0.00 in0.0 mm 0.00 in0.0 mm 0.00 in0.0 mm
01:50 PM 42.8°F6.0°C 40.9°F4.9°C 93% 3.5 mph NW5.6 kmh NW 7.9 mph12.7 kmh 30.48 in1032.2 mb 0.00 in0.0 mm 0.00 in0.0 mm 0.00 in0.0 mm
01:40 PM 42.8°F6.0°C 40.9°F4.9°C 93% 3.4 mph NW5.5 kmh NW 9.3 mph15.0 kmh 30.45 in1031.2 mb 0.00 in0.0 mm 0.00 in0.0 mm 0.00 in0.0 mm
01:30 PM 42.6°F5.9°C 41.0°F5.0°C 94% 2.9 mph NW4.7 kmh NW 7.2 mph11.6 kmh 30.45 in1031.2 mb 0.00 in0.0 mm 0.00 in0.0 mm 0.00 in0.0 mm
01:20 PM 42.4°F5.8°C 40.8°F4.9°C 94% 3.3 mph NW5.3 kmh NW 10.4 mph16.7 kmh 30.45 in1031.2 mb 0.00 in0.0 mm 0.00 in0.0 mm 0.00 in0.0 mm
01:10 PM 42.4°F5.8°C 40.8°F4.9°C 94% 2.1 mph NW3.4 kmh NW 7.9 mph12.7 kmh 30.42 in1030.1 mb 0.00 in0.0 mm 0.00 in0.0 mm 0.00 in0.0 mm
01:00 PM 42.3°F5.7°C 40.7°F4.8°C 94% 1.6 mph WNW2.6 kmh WNW 6.8 mph10.9 kmh 30.42 in1030.1 mb 0.00 in0.0 mm 0.00 in0.0 mm 0.00 in0.0 mm
12:50 PM 42.1°F5.6°C 40.5°F4.7°C 94% 1.5 mph WNW2.4 kmh WNW 6.1 mph9.8 kmh 30.42 in1030.1 mb 0.00 in0.0 mm 0.00 in0.0 mm 0.00 in0.0 mm
12:40 PM 41.9°F5.5°C 40.3°F4.6°C 94% 1.2 mph NW1.9 kmh NW 7.5 mph12.1 kmh 30.42 in1030.1 mb 0.00 in0.0 mm 0.00 in0.0 mm 0.00 in0.0 mm
12:30 PM 41.5°F5.3°C 39.9°F4.4°C 94% 1.4 mph NW2.3 kmh NW 5.0 mph8.0 kmh 30.42 in1030.1 mb 0.00 in0.0 mm 0.00 in0.0 mm 0.00 in0.0 mm
12:20 PM 41.4°F5.2°C 39.8°F4.3°C 94% 1.8 mph NW2.9 kmh NW 6.1 mph9.8 kmh 30.42 in1030.1 mb 0.00 in0.0 mm 0.00 in0.0 mm 0.00 in0.0 mm
12:10 PM 41.0°F5.0°C 39.4°F4.1°C 94% 3.0 mph WNW4.8 kmh WNW 6.8 mph10.9 kmh 30.39 in1029.1 mb 0.00 in0.0 mm 0.00 in0.0 mm 0.00 in0.0 mm
12:00 PM 40.6°F4.8°C 39.0°F3.9°C 94% 1.1 mph WNW1.8 kmh WNW 6.1 mph9.8 kmh 30.39 in1029.1 mb 0.00 in0.0 mm 0.00 in0.0 mm 0.00 in0.0 mm
11:50 AM 40.3°F4.6°C 38.7°F3.7°C 94% 1.0 mph NW1.6 kmh NW 4.7 mph7.6 kmh 30.39 in1029.1 mb 0.00 in0.0 mm 0.00 in0.0 mm 0.00 in0.0 mm
11:40 AM 39.9°F4.4°C 38.3°F3.5°C 94% 1.0 mph W1.6 kmh W 8.6 mph13.8 kmh 30.42 in1030.1 mb 0.00 in0.0 mm 0.00 in0.0 mm 0.00 in0.0 mm
11:30 AM 39.4°F4.1°C 37.8°F3.2°C 94% 1.2 mph W1.9 kmh W 6.4 mph10.3 kmh 30.42 in1030.1 mb 0.00 in0.0 mm 0.00 in0.0 mm 0.00 in0.0 mm
11:20 AM 38.8°F3.8°C 37.0°F2.8°C 93% 0.5 mph W0.8 kmh W 6.1 mph9.8 kmh 30.42 in1030.1 mb 0.00 in0.0 mm 0.00 in0.0 mm 0.00 in0.0 mm
11:10 AM 38.3°F3.5°C 36.5°F2.5°C 93% Calm Calm -- 30.39 in1029.1 mb 0.00 in0.0 mm 0.00 in0.0 mm 0.00 in0.0 mm
11:00 AM 37.9°F3.3°C 36.1°F2.3°C 93% 0.2 mph S0.3 kmh S 4.3 mph6.9 kmh 30.39 in1029.1 mb 0.00 in0.0 mm 0.00 in0.0 mm 0.00 in0.0 mm
10:50 AM 37.6°F3.1°C 35.7°F2.1°C 93% 0.2 mph S0.3 kmh S 3.2 mph5.1 kmh 30.39 in1029.1 mb 0.00 in0.0 mm 0.00 in0.0 mm 0.00 in0.0 mm
10:40 AM 37.4°F3.0°C 35.6°F2.0°C 93% 0.5 mph S0.8 kmh S 4.7 mph7.6 kmh 30.39 in1029.1 mb 0.00 in0.0 mm 0.00 in0.0 mm 0.00 in0.0 mm
10:30 AM 36.9°F2.7°C 34.8°F1.6°C 92% 1.4 mph S2.3 kmh S 5.4 mph8.7 kmh 30.36 in1028.1 mb 0.00 in0.0 mm 0.00 in0.0 mm 0.00 in0.0 mm
10:20 AM 36.3°F2.4°C 34.2°F1.2°C 92% Calm Calm -- 30.36 in1028.1 mb 0.00 in0.0 mm 0.00 in0.0 mm 0.00 in0.0 mm
10:10 AM 36.0°F2.2°C 33.6°F0.9°C 91% Calm Calm -- 30.36 in1028.1 mb 0.00 in0.0 mm 0.00 in0.0 mm 0.00 in0.0 mm
10:00 AM 35.8°F2.1°C 33.1°F0.6°C 90% Calm Calm -- 30.33 in1027.1 mb 0.00 in0.0 mm 0.00 in0.0 mm 0.00 in0.0 mm
09:50 AM 36.0°F2.2°C 33.6°F0.9°C 91% Calm Calm 1.4 mph2.3 kmh 30.33 in1027.1 mb 0.00 in0.0 mm 0.00 in0.0 mm 0.00 in0.0 mm
09:40 AM 36.5°F2.5°C 34.1°F1.2°C 91% 0.1 mph W0.2 kmh W 1.4 mph2.3 kmh 30.36 in1028.1 mb 0.00 in0.0 mm 0.00 in0.0 mm 0.00 in0.0 mm
09:30 AM 36.3°F2.4°C 33.9°F1.1°C 91% Calm Calm -- 30.36 in1028.1 mb 0.00 in0.0 mm 0.00 in0.0 mm 0.00 in0.0 mm
09:20 AM 36.1°F2.3°C 33.8°F1.0°C 91% Calm Calm -- 30.36 in1028.1 mb 0.00 in0.0 mm 0.00 in0.0 mm 0.00 in0.0 mm
09:10 AM 36.1°F2.3°C 33.8°F1.0°C 91% Calm Calm -- 30.33 in1027.1 mb 0.00 in0.0 mm 0.00 in0.0 mm 0.00 in0.0 mm
09:00 AM 36.1°F2.3°C 33.8°F1.0°C 91% Calm Calm -- 30.30 in1026.1 mb 0.00 in0.0 mm 0.00 in0.0 mm 0.00 in0.0 mm
08:50 AM 35.8°F2.1°C 33.4°F0.8°C 91% 0.3 mph W0.5 kmh W 3.9 mph6.3 kmh 30.30 in1026.1 mb 0.00 in0.0 mm 0.00 in0.0 mm 0.00 in0.0 mm
08:40 AM 35.8°F2.1°C 33.1°F0.6°C 90% Calm Calm -- 30.30 in1026.1 mb 0.00 in0.0 mm 0.00 in0.0 mm 0.00 in0.0 mm
08:30 AM 35.8°F2.1°C 33.1°F0.6°C 90% 0.8 mph W1.3 kmh W 4.7 mph7.6 kmh 30.33 in1027.1 mb 0.00 in0.0 mm 0.00 in0.0 mm 0.00 in0.0 mm
08:20 AM 35.8°F2.1°C 33.1°F0.6°C 90% 2.0 mph W3.2 kmh W 5.0 mph8.0 kmh 30.33 in1027.1 mb 0.00 in0.0 mm 0.00 in0.0 mm 0.00 in0.0 mm
08:10 AM 35.8°F2.1°C 33.1°F0.6°C 90% Calm Calm -- 30.30 in1026.1 mb 0.00 in0.0 mm 0.00 in0.0 mm 0.00 in0.0 mm
08:00 AM 36.0°F2.2°C 33.3°F0.7°C 90% 1.4 mph W2.3 kmh W 5.0 mph8.0 kmh 30.27 in1025.1 mb 0.00 in0.0 mm 0.00 in0.0 mm 0.00 in0.0 mm
07:50 AM 36.0°F2.2°C 33.3°F0.7°C 90% 3.6 mph W5.8 kmh W 6.4 mph10.3 kmh 30.27 in1025.1 mb 0.00 in0.0 mm 0.00 in0.0 mm 0.00 in0.0 mm
07:40 AM 36.3°F2.4°C 33.7°F0.9°C 90% 4.0 mph W6.4 kmh W 6.4 mph10.3 kmh 30.27 in1025.1 mb 0.00 in0.0 mm 0.00 in0.0 mm 0.00 in0.0 mm
07:30 AM 36.3°F2.4°C 33.7°F0.9°C 90% 0.2 mph W0.3 kmh W 4.7 mph7.6 kmh 30.27 in1025.1 mb 0.00 in0.0 mm 0.00 in0.0 mm 0.00 in0.0 mm
07:20 AM 36.1°F2.3°C 33.5°F0.8°C 90% 2.4 mph W3.9 kmh W 5.7 mph9.2 kmh 30.27 in1025.1 mb 0.00 in0.0 mm 0.00 in0.0 mm 0.00 in0.0 mm
07:10 AM 36.1°F2.3°C 33.5°F0.8°C 90% 0.9 mph W1.4 kmh W 5.0 mph8.0 kmh 30.24 in1024.0 mb 0.00 in0.0 mm 0.00 in0.0 mm 0.00 in0.0 mm
07:00 AM 36.0°F2.2°C 33.3°F0.7°C 90% Calm Calm -- 30.21 in1023.0 mb 0.00 in0.0 mm 0.00 in0.0 mm 0.00 in0.0 mm
06:50 AM 36.0°F2.2°C 33.3°F0.7°C 90% 0.2 mph W0.3 kmh W 4.3 mph6.9 kmh 30.21 in1023.0 mb 0.00 in0.0 mm 0.00 in0.0 mm 0.00 in0.0 mm
06:40 AM 36.1°F2.3°C 33.2°F0.7°C 89% 2.6 mph W4.2 kmh W 6.1 mph9.8 kmh 30.24 in1024.0 mb 0.00 in0.0 mm 0.00 in0.0 mm 0.00 in0.0 mm
06:30 AM 36.3°F2.4°C 33.7°F0.9°C 90% 2.4 mph W3.9 kmh W 5.7 mph9.2 kmh 30.24 in1024.0 mb 0.00 in0.0 mm 0.00 in0.0 mm 0.00 in0.0 mm
06:20 AM 36.5°F2.5°C 33.8°F1.0°C 90% 1.3 mph W2.1 kmh W 5.4 mph8.7 kmh 30.24 in1024.0 mb 0.00 in0.0 mm 0.00 in0.0 mm 0.00 in0.0 mm
06:10 AM 36.9°F2.7°C 34.2°F1.2°C 90% 0.7 mph W1.1 kmh W 5.0 mph8.0 kmh 30.21 in1023.0 mb 0.00 in0.0 mm 0.00 in0.0 mm 0.00 in0.0 mm
06:00 AM 37.0°F2.8°C 34.4°F1.3°C 90% 0.5 mph W0.8 kmh W 5.0 mph8.0 kmh 30.21 in1023.0 mb 0.00 in0.0 mm 0.00 in0.0 mm 0.00 in0.0 mm
05:50 AM 37.0°F2.8°C 34.4°F1.3°C 90% 1.0 mph W1.6 kmh W 5.7 mph9.2 kmh 30.21 in1023.0 mb 0.00 in0.0 mm 0.00 in0.0 mm 0.00 in0.0 mm
05:40 AM 37.0°F2.8°C 34.1°F1.2°C 89% Calm Calm -- 30.18 in1022.0 mb 0.00 in0.0 mm 0.00 in0.0 mm 0.00 in0.0 mm
05:30 AM 37.4°F3.0°C 34.7°F1.5°C 90% Calm Calm -- 30.18 in1022.0 mb 0.00 in0.0 mm 0.00 in0.0 mm 0.00 in0.0 mm
05:20 AM 37.6°F3.1°C 34.6°F1.4°C 89% Calm Calm -- 30.18 in1022.0 mb 0.00 in0.0 mm 0.00 in0.0 mm 0.00 in0.0 mm
05:10 AM 37.9°F3.3°C 35.3°F1.8°C 90% Calm Calm -- 30.18 in1022.0 mb 0.00 in0.0 mm 0.00 in0.0 mm 0.00 in0.0 mm
05:00 AM 38.3°F3.5°C 35.6°F2.0°C 90% Calm Calm -- 30.18 in1022.0 mb 0.00 in0.0 mm 0.00 in0.0 mm 0.00 in0.0 mm
04:50 AM 38.5°F3.6°C 35.8°F2.1°C 90% 0.2 mph W0.3 kmh W 3.9 mph6.3 kmh 30.18 in1022.0 mb 0.00 in0.0 mm 0.00 in0.0 mm 0.00 in0.0 mm
04:40 AM 38.7°F3.7°C 36.0°F2.2°C 90% 0.8 mph W1.3 kmh W 5.7 mph9.2 kmh 30.18 in1022.0 mb 0.00 in0.0 mm 0.00 in0.0 mm 0.00 in0.0 mm
04:30 AM 38.8°F3.8°C 36.2°F2.3°C 90% 0.5 mph W0.8 kmh W 7.2 mph11.6 kmh 30.15 in1021.0 mb 0.00 in0.0 mm 0.00 in0.0 mm 0.00 in0.0 mm
04:20 AM 39.2°F4.0°C 36.5°F2.5°C 90% 1.6 mph W2.6 kmh W 5.7 mph9.2 kmh 30.15 in1021.0 mb 0.00 in0.0 mm 0.00 in0.0 mm 0.00 in0.0 mm
04:10 AM 39.4°F4.1°C 36.7°F2.6°C 90% 1.2 mph W1.9 kmh W 5.0 mph8.0 kmh 30.15 in1021.0 mb 0.00 in0.0 mm 0.00 in0.0 mm 0.00 in0.0 mm
04:00 AM 39.7°F4.3°C 37.0°F2.8°C 90% 2.6 mph W4.2 kmh W 6.1 mph9.8 kmh 30.15 in1021.0 mb 0.00 in0.0 mm 0.00 in0.0 mm 0.00 in0.0 mm
03:50 AM 39.9°F4.4°C 37.2°F2.9°C 90% 3.2 mph W5.1 kmh W 7.9 mph12.7 kmh 30.15 in1021.0 mb 0.00 in0.0 mm 0.00 in0.0 mm 0.00 in0.0 mm
03:40 AM 39.9°F4.4°C 37.2°F2.9°C 90% 2.5 mph W4.0 kmh W 10.0 mph16.1 kmh 30.15 in1021.0 mb 0.00 in0.0 mm 0.00 in0.0 mm 0.00 in0.0 mm
03:30 AM 39.7°F4.3°C 37.0°F2.8°C 90% 1.3 mph W2.1 kmh W 6.1 mph9.8 kmh 30.12 in1020.0 mb 0.00 in0.0 mm 0.00 in0.0 mm 0.00 in0.0 mm
03:20 AM 39.7°F4.3°C 36.8°F2.7°C 89% 1.1 mph W1.8 kmh W 5.0 mph8.0 kmh 30.12 in1020.0 mb 0.00 in0.0 mm 0.00 in0.0 mm 0.00 in0.0 mm
03:10 AM 39.9°F4.4°C 36.9°F2.7°C 89% 1.2 mph W1.9 kmh W 6.8 mph10.9 kmh 30.12 in1020.0 mb 0.00 in0.0 mm 0.00 in0.0 mm 0.00 in0.0 mm
03:00 AM 40.1°F4.5°C 37.4°F3.0°C 90% 1.5 mph W2.4 kmh W 6.4 mph10.3 kmh 30.12 in1020.0 mb 0.00 in0.0 mm 0.00 in0.0 mm 0.00 in0.0 mm
02:50 AM 40.3°F4.6°C 37.3°F2.9°C 89% 1.8 mph W2.9 kmh W 5.7 mph9.2 kmh 30.12 in1020.0 mb 0.00 in0.0 mm 0.00 in0.0 mm 0.00 in0.0 mm
02:40 AM 40.3°F4.6°C 37.3°F2.9°C 89% 3.1 mph W5.0 kmh W 11.8 mph19.0 kmh 30.09 in1019.0 mb 0.00 in0.0 mm 0.00 in0.0 mm 0.00 in0.0 mm
02:30 AM 40.5°F4.7°C 37.5°F3.1°C 89% 3.8 mph W6.1 kmh W 8.6 mph13.8 kmh 30.12 in1020.0 mb 0.00 in0.0 mm 0.00 in0.0 mm 0.00 in0.0 mm
02:20 AM 40.5°F4.7°C 37.5°F3.1°C 89% 3.2 mph W5.1 kmh W 9.7 mph15.6 kmh 30.12 in1020.0 mb 0.00 in0.0 mm 0.00 in0.0 mm 0.00 in0.0 mm
02:10 AM 40.6°F4.8°C 37.7°F3.2°C 89% 5.7 mph W9.2 kmh W 10.4 mph16.7 kmh 30.09 in1019.0 mb 0.00 in0.0 mm 0.00 in0.0 mm 0.00 in0.0 mm
02:00 AM 40.8°F4.9°C 37.8°F3.2°C 89% 4.3 mph W6.9 kmh W 9.7 mph15.6 kmh 30.09 in1019.0 mb 0.00 in0.0 mm 0.00 in0.0 mm 0.00 in0.0 mm
01:50 AM 41.0°F5.0°C 38.0°F3.3°C 89% 5.0 mph W8.0 kmh W 10.0 mph16.1 kmh 30.09 in1019.0 mb 0.00 in0.0 mm 0.00 in0.0 mm 0.00 in0.0 mm
01:40 AM 41.4°F5.2°C 38.4°F3.6°C 89% 5.8 mph W9.3 kmh W 10.0 mph16.1 kmh 30.07 in1018.3 mb 0.00 in0.0 mm 0.00 in0.0 mm 0.00 in0.0 mm
01:30 AM 41.5°F5.3°C 38.5°F3.6°C 89% 6.1 mph W9.8 kmh W 14.0 mph22.5 kmh 30.07 in1018.3 mb 0.00 in0.0 mm 0.00 in0.0 mm 0.00 in0.0 mm
01:20 AM 41.7°F5.4°C 39.0°F3.9°C 90% 6.7 mph W10.8 kmh W 14.3 mph23.0 kmh 30.07 in1018.3 mb 0.00 in0.0 mm 0.00 in0.0 mm 0.00 in0.0 mm
01:10 AM 41.9°F5.5°C 39.2°F4.0°C 90% 7.0 mph W11.3 kmh W 11.8 mph19.0 kmh 30.04 in1017.3 mb 0.00 in0.0 mm 0.00 in0.0 mm 0.00 in0.0 mm
01:00 AM 41.7°F5.4°C 38.7°F3.7°C 89% 6.0 mph W9.7 kmh W 9.7 mph15.6 kmh 30.07 in1018.3 mb 0.00 in0.0 mm 0.00 in0.0 mm 0.00 in0.0 mm
12:50 AM 41.5°F5.3°C 38.5°F3.6°C 89% 6.5 mph W10.5 kmh W 10.4 mph16.7 kmh 30.07 in1018.3 mb 0.00 in0.0 mm 0.00 in0.0 mm 0.00 in0.0 mm
12:40 AM 41.5°F5.3°C 38.3°F3.5°C 88% 6.1 mph W9.8 kmh W 11.8 mph19.0 kmh 30.07 in1018.3 mb 0.00 in0.0 mm 0.00 in0.0 mm 0.00 in0.0 mm
12:30 AM 41.7°F5.4°C 38.7°F3.7°C 89% 5.8 mph W9.3 kmh W 10.4 mph16.7 kmh 30.07 in1018.3 mb 0.00 in0.0 mm 0.00 in0.0 mm 0.00 in0.0 mm
12:20 AM 42.1°F5.6°C 39.1°F3.9°C 89% 7.2 mph W11.6 kmh W 12.2 mph19.6 kmh 30.07 in1018.3 mb 0.00 in0.0 mm 0.00 in0.0 mm 0.00 in0.0 mm
12:10 AM 42.1°F5.6°C 39.1°F3.9°C 89% 6.5 mph W10.5 kmh W 13.6 mph21.9 kmh 30.04 in1017.3 mb 0.00 in0.0 mm 0.00 in0.0 mm 0.00 in0.0 mm
12:00 AM 42.1°F5.6°C 39.1°F3.9°C 89% 7.3 mph W11.7 kmh W 15.7 mph25.3 kmh 30.04 in1017.3 mb 0.00 in0.0 mm 0.00 in0.0 mm 0.00 in0.0 mm